createdAt,value
2022-09-09T00:01:32.855Z,87.30
2022-09-09T00:04:12.476Z,87.40
2022-09-09T00:06:48.143Z,87.40
2022-09-09T00:09:21.045Z,87.40
2022-09-09T00:11:54.891Z,87.40
2022-09-09T00:14:32.128Z,88.30
2022-09-09T00:17:05.301Z,87.50
2022-09-09T00:19:41.353Z,87.50
2022-09-09T00:22:18.553Z,87.50
2022-09-09T00:24:54.530Z,87.60
2022-09-09T00:27:31.697Z,87.50
2022-09-09T00:30:15.079Z,87.50
2022-09-09T00:32:45.646Z,87.50
2022-09-09T00:35:21.061Z,87.50
2022-09-09T00:37:53.168Z,87.50
2022-09-09T00:40:31.704Z,87.40
2022-09-09T00:43:22.205Z,87.40
2022-09-09T00:46:26.564Z,87.50
2022-09-09T00:49:04.693Z,87.40
2022-09-09T00:51:47.968Z,87.40
2022-09-09T00:54:30.283Z,87.30
2022-09-09T00:57:14.786Z,87.20
2022-09-09T00:59:51.399Z,87.30
2022-09-09T01:02:32.159Z,87.20
2022-09-09T01:05:09.825Z,87.10
2022-09-09T01:07:39.039Z,87.10
2022-09-09T01:10:18.672Z,87.10
2022-09-09T01:12:51.211Z,86.90
2022-09-09T01:15:28.030Z,87.00
2022-09-09T01:18:03.561Z,87.10
2022-09-09T01:20:42.546Z,87.00
2022-09-09T01:23:28.181Z,87.90
2022-09-09T01:26:32.655Z,87.10
2022-09-09T01:29:09.304Z,87.20
2022-09-09T01:31:43.400Z,87.20
2022-09-09T01:34:14.731Z,87.10
2022-09-09T01:36:49.536Z,87.00
2022-09-09T01:39:19.227Z,87.00
2022-09-09T01:41:53.699Z,86.90
2022-09-09T01:44:23.205Z,86.90
2022-09-09T01:46:52.348Z,87.00
2022-09-09T01:49:23.609Z,86.90
2022-09-09T01:51:56.342Z,86.90
2022-09-09T01:54:37.307Z,86.90
2022-09-09T01:57:20.357Z,86.90
2022-09-09T02:00:01.877Z,86.80
2022-09-09T02:02:38.822Z,86.80
2022-09-09T02:05:25.566Z,86.70
2022-09-09T02:08:03.046Z,86.80
2022-09-09T02:10:47.205Z,86.60
2022-09-09T02:13:27.198Z,86.70
2022-09-09T02:16:03.034Z,86.70
2022-09-09T02:18:37.888Z,86.70
2022-09-09T02:21:09.620Z,86.70
2022-09-09T02:23:40.931Z,86.60
2022-09-09T02:26:16.031Z,86.70
2022-09-09T02:28:47.074Z,86.60
2022-09-09T02:31:19.900Z,86.60
2022-09-09T02:33:54.968Z,86.60
2022-09-09T02:36:27.800Z,86.50
2022-09-09T02:38:57.830Z,86.50
2022-09-09T02:41:34.808Z,86.50
2022-09-09T02:44:08.413Z,86.40
2022-09-09T02:46:54.645Z,86.40
2022-09-09T02:49:31.018Z,86.30
2022-09-09T02:52:06.861Z,86.20
2022-09-09T02:54:40.871Z,86.40
2022-09-09T02:57:17.285Z,86.20
2022-09-09T02:59:53.156Z,86.10
2022-09-09T03:02:22.414Z,86.20
2022-09-09T03:04:56.967Z,86.10
2022-09-09T03:07:26.273Z,86.10
2022-09-09T03:09:56.105Z,86.00
2022-09-09T03:12:28.509Z,86.10
2022-09-09T03:14:59.155Z,86.00
2022-09-09T03:17:29.206Z,85.70
2022-09-09T03:20:00.160Z,85.90
2022-09-09T03:22:29.627Z,86.00
2022-09-09T03:25:01.406Z,85.80
2022-09-09T03:27:31.143Z,85.90
2022-09-09T03:30:04.673Z,85.90
2022-09-09T03:32:33.802Z,85.80
2022-09-09T03:35:03.543Z,85.80
2022-09-09T03:37:33.336Z,85.90
2022-09-09T03:40:02.582Z,85.70
2022-09-09T03:42:32.621Z,85.80
2022-09-09T03:45:05.558Z,85.80
2022-09-09T03:47:34.884Z,85.70
2022-09-09T03:50:10.598Z,85.80
2022-09-09T03:52:43.891Z,85.70
2022-09-09T03:55:19.343Z,85.60
2022-09-09T03:57:48.617Z,85.50
2022-09-09T04:00:19.877Z,85.50
2022-09-09T04:02:55.269Z,85.50
2022-09-09T04:05:24.577Z,85.40
2022-09-09T04:07:54.088Z,85.30
2022-09-09T04:10:24.298Z,85.60
2022-09-09T04:12:56.460Z,85.70
2022-09-09T04:15:27.089Z,85.70
2022-09-09T04:17:56.600Z,86.00
2022-09-09T04:20:26.479Z,85.80
2022-09-09T04:22:55.703Z,86.00
2022-09-09T04:25:25.004Z,86.20
2022-09-09T04:27:57.407Z,85.90
2022-09-09T04:30:28.532Z,86.70
2022-09-09T04:32:58.711Z,87.80
2022-09-09T04:35:28.348Z,88.90
2022-09-09T04:37:58.278Z,87.90
2022-09-09T04:40:29.578Z,88.50
2022-09-09T04:43:00.510Z,88.60
2022-09-09T04:45:31.584Z,88.40
2022-09-09T04:48:01.547Z,88.30
2022-09-09T04:50:30.806Z,88.10
2022-09-09T04:53:03.495Z,88.00
2022-09-09T04:55:33.251Z,86.70
2022-09-09T04:58:06.491Z,87.10
2022-09-09T05:00:37.904Z,86.40
2022-09-09T05:03:10.479Z,86.40
2022-09-09T05:05:39.828Z,86.70
2022-09-09T05:08:11.195Z,86.40
2022-09-09T05:10:43.031Z,86.60
2022-09-09T05:13:12.388Z,86.60
2022-09-09T05:15:44.333Z,86.60
2022-09-09T05:18:13.731Z,86.20
2022-09-09T05:20:44.056Z,86.40
2022-09-09T05:23:14.511Z,86.40
2022-09-09T05:25:44.649Z,86.30
2022-09-09T05:28:13.755Z,86.40
2022-09-09T05:30:44.908Z,86.40
2022-09-09T05:33:14.141Z,86.20
2022-09-09T05:35:43.312Z,86.20
2022-09-09T05:38:12.504Z,85.90
2022-09-09T05:40:43.558Z,86.00
2022-09-09T05:43:13.008Z,86.00
2022-09-09T05:45:44.194Z,85.80
2022-09-09T05:48:13.657Z,85.60
2022-09-09T05:50:43.747Z,85.80
2022-09-09T05:53:13.215Z,85.50
2022-09-09T05:55:43.538Z,85.50
2022-09-09T05:58:13.351Z,85.40
2022-09-09T06:00:42.569Z,85.40
2022-09-09T06:03:14.410Z,85.40
2022-09-09T06:05:43.617Z,85.40
2022-09-09T06:08:12.739Z,85.40
2022-09-09T06:10:41.920Z,85.40
2022-09-09T06:13:11.152Z,85.30
2022-09-09T06:15:41.852Z,85.30
2022-09-09T06:18:11.268Z,85.20
2022-09-09T06:20:41.964Z,85.30
2022-09-09T06:23:11.578Z,85.20
2022-09-09T06:25:41.873Z,85.20
2022-09-09T06:28:11.620Z,85.30
2022-09-09T06:30:41.170Z,85.10
2022-09-09T06:33:10.433Z,85.00
2022-09-09T06:35:41.285Z,85.00
2022-09-09T06:38:10.708Z,85.00
2022-09-09T06:40:40.992Z,85.00
2022-09-09T06:43:11.095Z,85.00
2022-09-09T06:45:44.147Z,85.00
2022-09-09T06:48:13.289Z,85.00
2022-09-09T06:50:44.135Z,84.90
2022-09-09T06:53:13.328Z,85.00
2022-09-09T06:55:45.399Z,85.00
2022-09-09T06:58:15.564Z,85.10
2022-09-09T07:00:44.796Z,85.10
2022-09-09T07:03:14.124Z,85.00
2022-09-09T07:05:45.405Z,85.10
2022-09-09T07:08:15.588Z,85.00
2022-09-09T07:10:45.356Z,85.00
2022-09-09T07:13:16.739Z,85.00
2022-09-09T07:15:46.190Z,85.20
2022-09-09T07:18:15.389Z,85.30
2022-09-09T07:20:54.893Z,85.20
2022-09-09T07:23:24.197Z,85.00
2022-09-09T07:25:54.103Z,85.00
2022-09-09T07:28:24.309Z,85.00
2022-09-09T07:30:57.428Z,85.10
2022-09-09T07:33:27.752Z,84.80
2022-09-09T07:36:06.894Z,85.40
2022-09-09T07:38:41.885Z,84.80
2022-09-09T07:41:13.162Z,85.00
2022-09-09T07:43:43.311Z,84.70
2022-09-09T07:46:14.334Z,84.60
2022-09-09T07:48:48.207Z,84.70
2022-09-09T07:51:20.790Z,84.90
2022-09-09T07:53:54.472Z,85.10
2022-09-09T07:56:24.308Z,85.00
2022-09-09T07:58:56.059Z,84.90
2022-09-09T08:01:27.801Z,84.90
2022-09-09T08:04:00.420Z,84.90
2022-09-09T08:06:32.215Z,84.90
2022-09-09T08:09:01.960Z,85.00
2022-09-09T08:11:38.563Z,85.20
2022-09-09T08:14:09.858Z,85.10
2022-09-09T08:16:41.490Z,85.20
2022-09-09T08:19:11.054Z,85.20
2022-09-09T08:21:43.668Z,85.20
2022-09-09T08:24:16.293Z,85.30
2022-09-09T08:26:50.755Z,85.00
2022-09-09T08:29:24.541Z,85.00
2022-09-09T08:31:58.352Z,85.60
2022-09-09T08:34:29.317Z,85.00
2022-09-09T08:37:01.938Z,84.90
2022-09-09T08:39:37.556Z,85.00
2022-09-09T08:42:40.749Z,85.00
2022-09-09T08:45:23.407Z,85.10
2022-09-09T08:48:05.436Z,85.20
2022-09-09T08:50:39.812Z,85.00
2022-09-09T08:53:22.912Z,85.00
2022-09-09T08:55:56.561Z,84.90
2022-09-09T08:58:49.994Z,84.80
2022-09-09T09:01:47.624Z,84.80
2022-09-09T09:07:32.880Z,84.80
2022-09-09T09:10:37.427Z,84.90
2022-09-09T09:13:06.232Z,84.80
2022-09-09T09:15:41.158Z,84.70
2022-09-09T09:18:17.168Z,84.90
2022-09-09T09:21:00.831Z,84.90
2022-09-09T09:23:39.389Z,84.70
2022-09-09T09:26:13.082Z,84.70
2022-09-09T09:28:43.455Z,84.80
2022-09-09T09:31:20.590Z,84.80
2022-09-09T09:33:54.235Z,84.90
2022-09-09T09:36:40.426Z,84.50
2022-09-09T09:42:15.528Z,85.00
2022-09-09T09:44:49.035Z,85.10
2022-09-09T09:47:24.528Z,84.90
2022-09-09T09:50:24.221Z,84.80
2022-09-09T09:53:00.476Z,85.00
2022-09-09T09:55:34.719Z,85.00
2022-09-09T09:58:07.339Z,84.90
2022-09-09T10:00:38.239Z,85.00
2022-09-09T10:03:26.998Z,84.90
2022-09-09T10:05:58.088Z,85.00
2022-09-09T10:08:28.546Z,84.90
2022-09-09T10:11:24.729Z,85.10
2022-09-09T10:14:05.957Z,85.30
2022-09-09T10:16:49.630Z,85.20
2022-09-09T10:19:28.811Z,85.20
2022-09-09T10:22:14.246Z,85.10
2022-09-09T10:25:02.740Z,85.20
2022-09-09T10:27:42.110Z,85.20
2022-09-09T10:30:20.225Z,85.10
2022-09-09T10:32:53.384Z,85.10
2022-09-09T10:35:32.951Z,85.00
2022-09-09T10:38:16.250Z,85.20
2022-09-09T10:41:12.113Z,85.00
2022-09-09T10:44:12.373Z,85.20
2022-09-09T10:46:55.168Z,85.20
2022-09-09T10:49:40.353Z,85.00
2022-09-09T10:52:17.669Z,84.50
2022-09-09T10:54:58.385Z,84.10
2022-09-09T10:57:33.708Z,83.10
2022-09-09T11:00:07.318Z,82.10
2022-09-09T11:02:40.580Z,81.70
2022-09-09T11:05:17.224Z,80.70
2022-09-09T11:07:53.792Z,80.90
2022-09-09T11:10:28.548Z,79.80
2022-09-09T11:13:02.108Z,80.30
2022-09-09T11:15:38.649Z,81.20
2022-09-09T11:18:14.231Z,80.10
2022-09-09T11:20:45.034Z,79.90
2022-09-09T11:23:18.205Z,79.60
2022-09-09T11:25:53.676Z,78.90
2022-09-09T11:28:38.948Z,79.40
2022-09-09T11:31:20.972Z,79.20
2022-09-09T11:34:10.842Z,79.10
2022-09-09T11:37:03.211Z,77.60
2022-09-09T11:39:52.368Z,76.20
2022-09-09T11:42:25.624Z,74.80
2022-09-09T11:44:56.190Z,75.60
2022-09-09T11:47:31.180Z,76.00
2022-09-09T11:50:14.850Z,76.10
2022-09-09T11:52:47.203Z,75.90
2022-09-09T11:55:30.870Z,75.40
2022-09-09T11:58:01.926Z,72.80
2022-09-09T12:00:38.198Z,72.90
2022-09-09T12:03:08.212Z,73.70
2022-09-09T12:05:45.071Z,71.90
2022-09-09T12:08:21.396Z,71.00
2022-09-09T12:10:57.831Z,71.80
2022-09-09T12:13:29.525Z,72.20
2022-09-09T12:16:00.382Z,71.80
2022-09-09T12:18:37.970Z,70.40
2022-09-09T12:21:19.311Z,71.60
2022-09-09T12:23:53.019Z,70.30
2022-09-09T12:26:32.381Z,69.10
2022-09-09T12:29:13.175Z,67.80
2022-09-09T12:31:49.056Z,67.00
2022-09-09T12:34:20.225Z,66.70
2022-09-09T12:36:57.545Z,67.40
2022-09-09T12:39:34.628Z,67.90
2022-09-09T12:42:05.326Z,68.30
2022-09-09T12:44:34.642Z,68.50
2022-09-09T12:47:05.999Z,68.80
2022-09-09T12:49:39.497Z,68.80
2022-09-09T12:52:17.237Z,69.40
2022-09-09T12:54:49.011Z,70.00
2022-09-09T12:57:18.522Z,70.50
2022-09-09T12:59:49.214Z,70.90
2022-09-09T13:02:24.352Z,70.90
2022-09-09T13:04:54.110Z,71.20
2022-09-09T13:07:26.529Z,71.40
2022-09-09T13:09:55.767Z,71.50
2022-09-09T13:12:26.075Z,71.70
2022-09-09T13:14:58.409Z,72.00
2022-09-09T13:17:30.212Z,72.10
2022-09-09T13:19:59.895Z,72.40
2022-09-09T13:22:34.225Z,72.40
2022-09-09T13:25:06.869Z,72.70
2022-09-09T13:27:40.005Z,72.80
2022-09-09T13:30:25.165Z,73.10
2022-09-09T13:33:06.120Z,73.70
2022-09-09T13:35:36.766Z,73.90
2022-09-09T13:38:15.795Z,73.70
2022-09-09T13:40:58.739Z,74.10
2022-09-09T13:43:29.125Z,74.40
2022-09-09T13:46:00.258Z,74.20
2022-09-09T13:48:31.071Z,74.40
2022-09-09T13:51:02.924Z,74.60
2022-09-09T13:53:34.157Z,74.80
2022-09-09T13:56:03.802Z,74.90
2022-09-09T13:58:32.893Z,75.00
2022-09-09T14:01:02.322Z,75.00
2022-09-09T14:03:31.539Z,75.20
2022-09-09T14:06:00.733Z,75.20
2022-09-09T14:08:38.446Z,75.20
2022-09-09T14:11:13.796Z,75.50
2022-09-09T14:13:45.551Z,75.30
2022-09-09T14:16:16.266Z,75.70
2022-09-09T14:18:46.767Z,75.90
2022-09-09T14:21:20.055Z,75.70
2022-09-09T14:23:52.333Z,75.60
2022-09-09T14:26:24.651Z,74.80
2022-09-09T14:28:55.724Z,73.40
2022-09-09T14:31:26.097Z,71.00
2022-09-09T14:33:55.679Z,71.40
2022-09-09T14:36:25.348Z,69.50
2022-09-09T14:38:54.631Z,69.50
2022-09-09T14:41:26.289Z,69.50
2022-09-09T14:43:55.637Z,68.00
2022-09-09T14:46:25.301Z,67.90
2022-09-09T14:51:29.390Z,66.80
2022-09-09T14:54:00.223Z,65.30
2022-09-09T14:56:32.837Z,65.00
2022-09-09T14:59:03.165Z,63.80
2022-09-09T15:01:35.099Z,65.50
2022-09-09T15:04:06.907Z,64.20
2022-09-09T15:06:39.584Z,63.10
2022-09-09T15:09:09.402Z,62.50
2022-09-09T15:11:40.826Z,62.90
2022-09-09T15:14:11.514Z,63.10
2022-09-09T15:16:41.944Z,63.40
2022-09-09T15:19:11.751Z,63.90
2022-09-09T15:21:41.869Z,64.60
2022-09-09T15:24:11.231Z,63.80
2022-09-09T15:26:41.902Z,62.80
2022-09-09T15:29:13.584Z,63.50
2022-09-09T15:31:45.977Z,64.10
2022-09-09T15:34:16.709Z,63.50
2022-09-09T15:36:47.960Z,63.80
2022-09-09T15:39:19.606Z,63.00
2022-09-09T15:41:51.171Z,64.00
2022-09-09T15:44:21.666Z,64.00
2022-09-09T15:46:52.539Z,63.80
2022-09-09T15:49:26.121Z,62.30
2022-09-09T15:51:56.943Z,62.20
2022-09-09T15:54:29.028Z,63.00
2022-09-09T15:57:02.224Z,61.80
2022-09-09T15:59:33.390Z,59.90
2022-09-09T16:02:03.443Z,62.00
2022-09-09T16:04:33.074Z,59.60
2022-09-09T16:07:03.708Z,60.70
2022-09-09T16:09:34.612Z,61.50
2022-09-09T16:12:10.756Z,60.30
2022-09-09T16:14:39.933Z,60.10
2022-09-09T16:17:09.515Z,59.70
2022-09-09T16:19:38.830Z,60.10
2022-09-09T16:22:08.127Z,60.50
2022-09-09T16:24:37.265Z,59.30
2022-09-09T16:27:07.924Z,59.60
2022-09-09T16:29:37.261Z,61.40
2022-09-09T16:32:07.240Z,61.40
2022-09-09T16:34:36.344Z,61.20
2022-09-09T16:37:05.997Z,61.50
2022-09-09T16:39:35.429Z,61.60
2022-09-09T16:42:05.833Z,61.30
2022-09-09T16:44:36.834Z,62.10
2022-09-09T16:47:06.547Z,61.80
2022-09-09T16:49:38.471Z,61.40
2022-09-09T16:52:07.642Z,61.60
2022-09-09T16:54:36.912Z,61.30
2022-09-09T16:57:06.300Z,61.60
2022-09-09T16:59:37.148Z,61.70
2022-09-09T17:02:06.400Z,62.00
2022-09-09T17:04:35.716Z,62.10
2022-09-09T17:07:05.089Z,62.40
2022-09-09T17:09:34.322Z,62.90
2022-09-09T17:12:03.779Z,62.70
2022-09-09T17:14:33.363Z,62.50
2022-09-09T17:17:25.091Z,62.50
2022-09-09T17:19:54.813Z,62.30
2022-09-09T17:22:24.249Z,61.90
2022-09-09T17:24:53.300Z,61.40
2022-09-09T17:27:22.543Z,61.60
2022-09-09T17:29:52.350Z,60.80
2022-09-09T17:32:22.851Z,61.40
2022-09-09T17:34:52.076Z,61.30
2022-09-09T17:37:21.241Z,61.30
2022-09-09T17:39:51.006Z,61.60
2022-09-09T17:42:20.608Z,61.80
2022-09-09T17:44:49.702Z,62.00
2022-09-09T17:47:21.435Z,62.20
2022-09-09T17:49:53.702Z,62.10
2022-09-09T17:52:24.165Z,62.30
2022-09-09T17:54:57.623Z,62.50
2022-09-09T17:57:27.085Z,63.00
2022-09-09T17:59:56.216Z,63.20
2022-09-09T18:02:25.425Z,63.10
2022-09-09T18:04:55.947Z,63.40
2022-09-09T18:07:25.788Z,63.80
2022-09-09T18:09:55.012Z,64.00
2022-09-09T18:12:24.214Z,64.90
2022-09-09T18:14:54.277Z,64.90
2022-09-09T18:17:23.554Z,65.20
2022-09-09T18:19:52.731Z,65.30
2022-09-09T18:22:23.694Z,65.10
2022-09-09T18:24:53.095Z,65.20
2022-09-09T18:27:22.183Z,65.20
2022-09-09T18:29:51.338Z,65.40
2022-09-09T18:32:20.487Z,65.60
2022-09-09T18:34:55.331Z,65.80
2022-09-09T18:37:26.393Z,66.10
2022-09-09T18:39:55.710Z,66.30
2022-09-09T18:42:26.741Z,66.50
2022-09-09T18:44:55.996Z,67.10
2022-09-09T18:47:25.709Z,67.30
2022-09-09T18:49:55.615Z,67.50
2022-09-09T18:52:26.463Z,67.50
2022-09-09T18:54:55.559Z,67.70
2022-09-09T18:57:25.571Z,67.80
2022-09-09T18:59:55.776Z,67.90
2022-09-09T19:02:25.025Z,68.00
2022-09-09T19:04:54.155Z,68.10
2022-09-09T19:07:23.353Z,68.20
2022-09-09T19:09:53.822Z,68.20
2022-09-09T19:12:23.420Z,68.20
2022-09-09T19:14:52.792Z,68.40
2022-09-09T19:17:22.400Z,68.50
2022-09-09T19:19:51.765Z,68.90
2022-09-09T19:22:20.958Z,68.20
2022-09-09T19:24:50.295Z,68.50
2022-09-09T19:27:23.148Z,68.90
2022-09-09T19:29:56.764Z,68.90
2022-09-09T19:35:16.680Z,69.10
2022-09-09T19:37:47.399Z,68.90
2022-09-09T19:40:17.647Z,68.70
2022-09-09T19:42:48.616Z,68.70
2022-09-09T19:45:17.842Z,69.00
2022-09-09T19:47:47.156Z,69.40
2022-09-09T19:50:16.720Z,69.60
2022-09-09T19:52:45.807Z,69.60
2022-09-09T19:55:15.045Z,69.90
2022-09-09T19:57:44.271Z,70.20
2022-09-09T20:00:15.763Z,70.20
2022-09-09T20:03:02.736Z,70.70
2022-09-09T20:05:34.692Z,70.80
2022-09-09T20:08:06.535Z,70.90
2022-09-09T20:10:35.794Z,71.10
2022-09-09T20:13:04.968Z,71.10
2022-09-09T20:15:35.571Z,71.20
2022-09-09T20:18:04.873Z,71.50
2022-09-09T20:20:36.720Z,71.90
2022-09-09T20:23:05.845Z,72.60
2022-09-09T20:25:40.418Z,73.30
2022-09-09T20:28:09.540Z,74.50
2022-09-09T20:30:40.180Z,73.40
2022-09-09T20:33:09.424Z,74.30
2022-09-09T20:35:38.587Z,74.70
2022-09-09T20:38:08.253Z,75.10
2022-09-09T20:40:38.503Z,75.90
2022-09-09T20:43:08.177Z,76.10
2022-09-09T20:45:38.452Z,76.40
2022-09-09T20:48:09.695Z,76.50
2022-09-09T20:50:39.446Z,76.90
2022-09-09T20:53:09.100Z,77.30
2022-09-09T20:55:38.199Z,77.30
2022-09-09T20:58:07.340Z,77.60
2022-09-09T21:00:36.548Z,77.40
2022-09-09T21:03:05.797Z,77.30
2022-09-09T21:05:36.285Z,77.20
2022-09-09T21:08:05.720Z,76.90
2022-09-09T21:10:35.329Z,77.00
2022-09-09T21:13:04.755Z,77.10
2022-09-09T21:15:34.085Z,77.00
2022-09-09T21:18:03.330Z,77.00
2022-09-09T21:20:32.582Z,77.00
2022-09-09T21:23:03.072Z,77.00
2022-09-09T21:25:32.283Z,76.80
2022-09-09T21:28:01.403Z,76.80
2022-09-09T21:30:38.146Z,77.00
2022-09-09T21:33:11.967Z,76.90
2022-09-09T21:35:43.919Z,77.00
2022-09-09T21:38:18.182Z,77.20
2022-09-09T21:40:50.385Z,77.40
2022-09-09T21:43:21.734Z,77.30
2022-09-09T21:45:52.265Z,77.10
2022-09-09T21:48:21.804Z,77.10
2022-09-09T21:50:51.711Z,77.30
2022-09-09T21:53:25.270Z,77.10
2022-09-09T21:55:55.913Z,77.40
2022-09-09T21:58:27.417Z,77.30
2022-09-09T22:00:58.020Z,77.30
2022-09-09T22:03:29.190Z,77.40
2022-09-09T22:05:59.623Z,77.40
2022-09-09T22:08:32.599Z,77.50
2022-09-09T22:11:09.490Z,77.50
2022-09-09T22:13:39.543Z,77.50
2022-09-09T22:16:11.526Z,77.60
2022-09-09T22:18:40.718Z,77.50
2022-09-09T22:21:12.007Z,77.60
2022-09-09T22:23:42.780Z,77.60
2022-09-09T22:26:12.535Z,77.60
2022-09-09T22:28:41.699Z,77.50
2022-09-09T22:31:10.889Z,77.50
2022-09-09T22:33:40.042Z,77.40
2022-09-09T22:36:09.765Z,77.40
2022-09-09T22:38:39.294Z,77.40
2022-09-09T22:41:10.096Z,77.50
2022-09-09T22:43:39.332Z,77.60
2022-09-09T22:46:08.987Z,77.60
2022-09-09T22:48:39.766Z,77.50
2022-09-09T22:51:10.939Z,77.60
2022-09-09T22:53:42.102Z,77.50
2022-09-09T22:56:17.277Z,77.60
2022-09-09T22:58:47.702Z,77.50
2022-09-09T23:01:19.620Z,77.40
2022-09-09T23:03:50.828Z,77.50
2022-09-09T23:06:23.274Z,77.50
2022-09-09T23:08:56.187Z,77.40
2022-09-09T23:11:31.161Z,77.20
2022-09-09T23:14:01.763Z,77.10
2022-09-09T23:16:34.018Z,77.30
2022-09-09T23:19:03.494Z,77.20
2022-09-09T23:21:33.406Z,77.20
2022-09-09T23:24:02.995Z,77.10
2022-09-09T23:26:33.616Z,77.10
2022-09-09T23:29:03.703Z,77.10
2022-09-09T23:31:38.017Z,77.10
2022-09-09T23:34:07.832Z,77.10
2022-09-09T23:36:37.794Z,77.10
2022-09-09T23:39:09.151Z,77.10
2022-09-09T23:41:40.386Z,77.30
2022-09-09T23:44:10.223Z,77.20
2022-09-09T23:46:39.401Z,77.00
2022-09-09T23:49:09.750Z,76.90
2022-09-09T23:51:39.703Z,77.00
2022-09-09T23:54:10.128Z,77.10
2022-09-09T23:56:44.695Z,77.30
2022-09-09T23:59:14.177Z,77.20
